UTC

Schedule Details

Flight N° IV1101
Departure ICAO LIBD (Bari / Palese International Airport)
Arrival ICAO LIMJ (Genova / Sestri Cristoforo Colombo Airport)
Distance 400.91 nm
Schedule Aircraft Cessna 182
Flight Type Passenger
Route (AIRAC 2007)
LIBD SID VIE DCT NAVAG DCT KATAR DCT OSMOX DCT KALMO STAR LIMJ
Departure METAR
LIBD 132250Z 25006KT CAVOK 19/10 Q1014
Departure TAF
LIBD 131700Z 1318/1418 01013KT CAVOK BECMG 1318/1320 26008KT BECMG 1408/1410 02012KT
Arrival METAR
LIMJ 132250Z 04009KT CAVOK 24/13 Q1015
Arrival TAF
LIMJ 131700Z 1318/1418 36006KT 9999 SCT050

Flight Map